Latest Weather Observations for Double Island Point

IDQ60901

Issued at 3:51 pm EST Tuesday 1 September 2015 (issued every 10 minutes, with the page automatically refreshed every 10 minutes)

About weather observations | Map of Brisbane area stations | Latest observations for Brisbane area | Other Formats
Station Details ID: 040068 Name: DOUBLE ISLAND POINT LIGHTHOUSE Lat: -25.93 Lon: 153.19 Height: 95.64 m
Data from the previous 72 hours. | See also: Recent months at Double Island Point
Date/Time
EST
Tmp

°C
App
Tmp
°C
Dew
Point
°C
Rel
Hum
%
Delta-T

°C
Wind Press
QNH
hPa
Press
MSL
hPa
Rain
since
9 am
mm
Dir
 
Spd
km/h
Gust
km/h
Spd
kts
Gust
kts
01/03:30pm 22.0 19.7 8.9 43 7.0 NNE 11 17 6 9 1014.1 1013.8 0.0
01/03:00pm 22.0 19.3 8.9 43 7.0 NNE 13 19 7 10 1014.2 1013.9 0.0
01/02:30pm 22.2 19.1 8.7 42 7.2 NNE 15 20 8 11 1014.4 1014.1 0.0
01/02:00pm 22.8 21.3 9.2 42 7.3 NNW 7 17 4 9 1014.6 1014.3 0.0
01/01:30pm 22.9 21.5 9.7 43 7.2 NNW 7 13 4 7 1015.0 1014.7 0.0
01/01:00pm 22.2 20.1 8.3 41 7.3 N 9 13 5 7 1015.5 1015.2 0.0
01/12:30pm 22.4 19.5 8.1 40 7.5 NNW 13 19 7 10 1015.8 1015.5 0.0
01/12:00pm 21.4 17.2 7.6 41 7.2 NNW 19 26 10 14 1016.3 1016.0 0.0
01/11:30am 21.6 18.3 8.1 42 7.1 NNW 15 19 8 10 1016.8 1016.5 0.0
01/11:00am 20.4 17.0 7.7 44 6.6 NW 15 20 8 11 1017.3 1017.0 0.0
01/10:30am 20.4 17.9 8.4 46 6.3 NNW 11 17 6 9 1017.6 1017.3 0.0
01/10:00am 18.8 16.1 7.3 47 5.8 WNW 11 15 6 8 1017.7 1017.4 0.0
01/09:30am 17.1 13.3 6.0 48 5.4 WNW 15 20 8 11 1017.8 1017.6 0.0
01/09:00am 17.1 14.7 6.9 51 5.1 WNW 9 15 5 8 1018.0 1017.8 0.0
01/08:30am 14.8 11.0 7.4 61 3.7 WNW 17 22 9 12 1017.9 1017.7 0.0
01/08:00am 14.6 10.8 7.6 63 3.5 WNW 17 22 9 12 1017.7 1017.5 0.0
01/07:30am 14.3 9.4 6.9 61 3.6 NNW 22 28 12 15 1017.5 1017.3 0.0
01/07:00am 14.5 10.4 4.5 51 4.6 WNW 15 20 8 11 1017.1 1016.9 0.0
01/06:30am 14.3 9.9 2.9 46 5.1 WSW 15 22 8 12 1016.8 1016.6 0.0
01/06:00am 14.1 9.9 3.8 50 4.7 WSW 15 20 8 11 1016.4 1016.2 0.0
01/05:30am 14.5 10.3 3.9 49 4.9 WSW 15 20 8 11 1016.2 1016.0 0.0
01/05:00am 13.8 9.7 4.1 52 4.4 W 15 20 8 11 1015.9 1015.7 0.0
01/04:30am 15.1 8.5 2.3 42 5.7 SSW 26 33 14 18 1015.8 1015.6 0.0
01/04:00am 15.1 9.0 2.6 43 5.6 SW 24 33 13 18 1015.5 1015.3 0.0
01/03:30am 15.3 8.1 2.8 43 5.6 SSW 30 39 16 21 1015.4 1015.2 0.0
01/03:00am 13.8 8.3 4.1 52 4.4 SSW 22 33 12 18 1015.8 1015.6 0.0
01/02:30am 14.2 8.4 4.5 52 4.5 SSW 24 26 13 14 1015.9 1015.7 0.0
01/02:00am 15.1 9.1 3.6 46 5.3 S 24 32 13 17 1015.8 1015.6 0.0
01/01:30am 14.8 8.4 3.0 45 5.3 SSW 26 30 14 16 1015.9 1015.7 0.0
01/01:00am 15.3 9.4 4.1 47 5.2 S 24 28 13 15 1016.1 1015.9 0.0
01/12:30am 16.5 9.1 1.8 37 6.6 SSW 30 39 16 21 1016.2 1016.0 0.0
01/12:00am 15.9 11.9 8.2 60 3.9 SW 19 22 10 12 1016.4 1016.2 0.0
 
Date/Time
EST
Tmp

°C
App
Tmp
°C
Dew
Point
°C
Rel
Hum
%
Delta-T

°C
Wind Press
QNH
hPa
Press
MSL
hPa
Rain
since
9 am
mm
Dir
 
Spd
km/h
Gust
km/h
Spd
kts
Gust
kts
31/11:30pm 16.9 14.2 10.3 65 3.5 WSW 15 19 8 10 1016.5 1016.3 0.0
31/11:00pm 17.4 15.7 9.8 61 4.0 SW 9 13 5 7 1016.4 1016.2 0.0
31/10:30pm 17.3 16.3 10.4 64 3.7 WSW 6 9 3 5 1016.2 1016.0 0.0
31/10:00pm 17.3 15.8 10.4 64 3.7 SSW 9 9 5 5 1016.1 1015.9 0.0
31/09:30pm 17.2 15.7 10.6 65 3.5 SSW 9 11 5 6 1016.0 1015.8 0.0
31/09:00pm 17.1 16.0 10.5 65 3.5 SW 7 9 4 5 1015.9 1015.7 0.0
31/08:30pm 17.8 16.7 10.7 63 3.8 W 7 9 4 5 1015.7 1015.5 0.0
31/08:00pm 17.3 15.8 10.7 65 3.5 NW 9 11 5 6 1015.5 1015.3 0.0
31/07:30pm 17.2 16.1 10.6 65 3.5 N 7 13 4 7 1015.2 1015.0 0.0
31/07:00pm 17.4 16.2 10.3 63 3.8 N 7 11 4 6 1015.0 1014.8 0.0
31/06:30pm 17.6 15.7 10.5 63 3.8 N 11 15 6 8 1014.5 1014.3 0.0
31/06:00pm 17.8 15.4 10.2 61 4.1 NNE 13 17 7 9 1014.3 1014.1 0.0
31/05:30pm 18.2 16.5 9.8 58 4.5 NE 9 11 5 6 1013.9 1013.7 0.0
31/05:00pm 18.8 16.7 9.8 56 4.8 NE 11 17 6 9 1013.8 1013.6 0.0
31/04:30pm 19.1 17.3 9.3 53 5.2 NE 9 15 5 8 1013.8 1013.6 0.0
31/04:00pm 19.2 17.5 9.7 54 5.1 ENE 9 13 5 7 1013.8 1013.6 0.0
31/03:30pm 19.4 17.4 10.1 55 5.0 E 11 15 6 8 1013.7 1013.5 0.0
31/03:00pm 19.5 17.4 9.7 53 5.2 ESE 11 15 6 8 1013.8 1013.6 0.0
31/02:30pm 19.6 16.8 10.0 54 5.2 SE 15 19 8 10 1013.9 1013.7 0.0
31/02:00pm 19.7 16.7 9.3 51 5.5 SE 15 19 8 10 1014.1 1013.9 0.0
31/01:30pm 19.6 15.6 9.2 51 5.5 SSE 20 24 11 13 1014.2 1014.0 0.0
31/01:00pm 19.5 15.4 10.2 55 5.0 SSE 22 28 12 15 1014.4 1014.2 0.0
31/12:30pm 19.2 14.4 10.2 56 4.8 SSE 26 33 14 18 1014.5 1014.3 0.0
31/12:00pm 18.9 13.9 9.7 55 4.9 SSE 26 32 14 17 1014.9 1014.7 0.0
31/11:30am 18.3 13.4 8.6 53 5.0 S 24 32 13 17 1015.2 1015.0 0.0
31/11:00am 18.3 13.2 9.1 55 4.8 SSE 26 33 14 18 1015.5 1015.3 0.0
31/10:30am 18.1 12.5 8.7 54 4.9 S 28 32 15 17 1015.7 1015.5 0.0
31/10:00am 17.6 11.3 7.4 51 5.1 S 30 37 16 20 1015.7 1015.5 0.0
31/09:30am 17.4 11.2 6.0 47 5.6 S 28 35 15 19 1016.2 1016.0 0.0
31/09:00am 17.0 11.8 5.6 47 5.5 S 22 30 12 16 1016.4 1016.2 0.0
31/08:30am 16.7 12.1 5.6 48 5.4 S 19 26 10 14 1016.4 1016.2 0.0
31/08:00am 16.0 11.3 5.3 49 5.1 S 19 26 10 14 1016.1 1015.9 0.0
31/07:30am 15.4 10.6 4.8 49 5.0 SSW 19 26 10 14 1016.0 1015.8 0.0
31/07:00am 14.9 9.4 4.0 48 5.0 SSW 22 28 12 15 1015.6 1015.4 0.0
31/06:30am 14.6 8.3 3.7 48 5.0 SSW 26 30 14 16 1015.3 1015.1 0.0
31/06:00am 14.5 8.2 3.9 49 4.9 SSW 26 32 14 17 1015.1 1014.9 0.0
31/05:30am 14.8 7.8 4.2 49 4.9 SSW 30 35 16 19 1014.8 1014.6 0.0
31/05:00am 14.6 7.5 3.7 48 5.0 SSW 30 37 16 20 1014.6 1014.4 0.0
31/04:30am 14.4 6.9 3.2 47 5.1 SSW 32 41 17 22 1014.6 1014.4 0.0
31/04:00am 13.8 6.0 3.0 48 4.8 SW 33 43 18 23 1014.5 1014.3 0.0
31/03:30am 13.5 5.5 3.6 51 4.5 SW 35 43 19 23 1014.5 1014.3 0.0
31/03:00am 13.4 5.8 3.8 52 4.4 SW 33 43 18 23 1014.8 1014.6 0.0
31/02:30am 13.6 6.1 3.7 51 4.5 SW 32 39 17 21 1015.3 1015.1 0.0
31/02:00am 13.9 6.3 3.7 50 4.6 SW 33 39 18 21 1015.3 1015.1 0.0
31/01:30am 14.4 6.3 3.5 48 5.0 WSW 35 41 19 22 1015.4 1015.2 0.0
31/01:00am 14.7 7.3 3.8 48 5.0 WSW 32 39 17 21 1015.8 1015.6 0.0
31/12:30am 15.0 7.9 3.8 47 5.2 WSW 30 39 16 21 1016.1 1015.9 0.0
31/12:00am 15.4 8.3 3.5 45 5.5 WSW 30 37 16 20 1016.4 1016.2 0.0
 
Date/Time
EST
Tmp

°C
App
Tmp
°C
Dew
Point
°C
Rel
Hum
%
Delta-T

°C
Wind Press
QNH
hPa
Press
MSL
hPa
Rain
since
9 am
mm
Dir
 
Spd
km/h
Gust
km/h
Spd
kts
Gust
kts
30/11:30pm 15.6 8.4 3.1 43 5.7 SW 30 41 16 22 1016.5 1016.3 0.0
30/11:00pm 15.8 8.9 2.6 41 6.0 SSW 28 37 15 20 1016.6 1016.4 0.0
30/10:30pm 16.1 8.5 2.9 41 6.0 SSW 32 46 17 25 1016.6 1016.4 0.0
30/10:00pm 16.1 9.4 3.5 43 5.8 SW 28 39 15 21 1016.6 1016.4 0.0
30/09:30pm 16.2 10.3 3.9 44 5.7 SW 24 32 13 17 1016.7 1016.5 0.0
30/09:00pm 16.8 10.5 3.8 42 6.1 SW 26 35 14 19 1016.6 1016.4 0.0
30/08:30pm 17.4 10.7 3.7 40 6.4 SSW 28 37 15 20 1016.5 1016.3 0.0
30/08:00pm 18.0 12.7 4.9 42 6.3 SSW 22 26 12 14 1016.4 1016.2 0.0
30/07:30pm 17.9 15.7 10.8 63 3.8 WSW 13 15 7 8 1016.0 1015.8 0.0
30/07:00pm 17.9 18.6 12.1 69 3.2 CALM 0 0 0 0 1015.6 1015.4 0.0
30/06:30pm 17.9 18.4 11.7 67 3.4 CALM 0 0 0 0 1015.3 1015.1 0.0
30/06:00pm 18.0 18.5 11.6 66 3.5 CALM 0 0 0 0 1014.9 1014.7 0.0
30/05:30pm 18.4 17.9 12.2 67 3.5 ENE 6 9 3 5 1014.6 1014.4 0.0
30/05:00pm 18.5 17.4 12.0 66 3.6 NE 9 13 5 7 1014.1 1013.9 0.0
30/04:30pm 19.2 18.1 12.0 63 4.0 ENE 9 13 5 7 1014.0 1013.8 0.0
30/04:00pm 19.3 17.6 11.3 60 4.4 ENE 11 13 6 7 1014.0 1013.8 0.0
30/03:30pm 19.1 17.5 11.7 62 4.1 ENE 11 17 6 9 1014.0 1013.8 0.0
30/03:00pm 19.7 18.2 12.0 61 4.3 E 11 15 6 8 1014.1 1013.9 0.0
30/02:30pm 19.2 17.9 11.3 60 4.3 E 9 13 5 7 1014.5 1014.3 0.0
30/02:00pm 19.3 17.3 11.6 61 4.3 ESE 13 17 7 9 1014.7 1014.5 0.0
30/01:30pm 19.3 18.0 11.1 59 4.5 ESE 9 13 5 7 1015.1 1014.9 0.0
30/01:00pm 19.2 17.9 11.3 60 4.3 ESE 9 13 5 7 1015.5 1015.3 0.0
30/12:30pm 19.2 18.0 11.7 62 4.2 SSE 9 13 5 7 1015.9 1015.7 0.0
30/12:00pm 19.5 18.4 13.0 66 3.7 SW 11 19 6 10 1016.3 1016.1 0.0
30/11:30am 17.9 16.1 12.1 69 3.2 SSW 13 22 7 12 1016.7 1016.5 0.0
30/11:00am 17.2 15.3 11.9 71 2.9 SSW 13 17 7 9 1017.2 1017.0 0.0
30/10:30am 17.3 15.0 11.6 69 3.1 SW 15 22 8 12 1017.6 1017.4 0.0
30/10:00am 17.3 16.2 13.2 77 2.3 WSW 11 15 6 8 1017.8 1017.6 0.0
30/09:30am 17.6 16.9 14.3 81 1.9 WSW 11 17 6 9 1017.9 1017.7 0.0
30/09:00am 16.5 14.4 13.6 83 1.6 SW 17 24 9 13 1018.1 1017.9 16.2
30/08:30am 16.3 14.3 14.0 86 1.3 SSW 17 26 9 14 1018.0 1017.8 16.2
30/08:00am 15.6 13.2 13.8 89 1.0 W 19 26 10 14 1017.5 1017.3 16.2
30/07:30am 15.2 12.5 13.6 90 0.9 W 20 26 11 14 1017.5 1017.3 16.2
30/07:00am 15.1 12.0 13.5 90 0.9 W 22 30 12 16 1017.4 1017.2 16.2
30/06:30am 15.3 13.3 13.8 91 0.8 W 17 22 9 12 1017.3 1017.1 16.2
30/06:00am 15.3 12.9 13.8 91 0.8 WSW 19 24 10 13 1016.9 1016.7 16.2
30/05:30am 15.7 14.2 14.1 90 0.9 WSW 15 17 8 9 1016.6 1016.4 16.2
30/05:00am 16.2 16.0 14.7 91 0.9 WNW 9 13 5 7 1016.2 1016.0 16.2
30/04:30am 16.2 17.3 14.7 91 0.9 NNE 2 6 1 3 1015.7 1015.5 16.0
30/04:00am 16.1 15.5 14.6 91 0.9 NNW 11 13 6 7 1016.8 1016.6 15.6
30/03:30am 16.1 16.3 14.6 91 0.9 NW 7 11 4 6 1016.5 1016.3 15.0
30/03:00am 16.0 15.7 14.5 91 0.9 SW 9 11 5 6 1017.3 1017.1 14.6
30/02:30am 15.9 15.2 14.4 91 0.9 SSW 11 15 6 8 1017.6 1017.4 14.4
30/02:00am 16.1 15.1 14.5 90 0.9 SSW 13 15 7 8 1017.6 1017.4 13.6
30/01:30am 16.3 15.7 14.7 90 0.9 SSW 11 13 6 7 1017.9 1017.7 12.6
30/01:00am 16.7 15.1 15.1 90 0.9 S 17 22 9 12 1018.3 1018.1 11.8
30/12:30am 16.8 15.7 15.2 90 0.9 S 15 17 8 9 1018.7 1018.5 10.6
30/12:00am 17.0 15.1 15.3 90 1.0 S 19 26 10 14 1019.1 1018.9 10.2
 
Date/Time
EST
Tmp

°C
App
Tmp
°C
Dew
Point
°C
Rel
Hum
%
Delta-T

°C
Wind Press
QNH
hPa
Press
MSL
hPa
Rain
since
9 am
mm
Dir
 
Spd
km/h
Gust
km/h
Spd
kts
Gust
kts
29/11:30pm 17.1 13.6 15.4 90 1.0 SSW 28 33 15 18 1019.1 1018.9 10.0
29/11:00pm 17.1 13.6 15.4 90 1.0 S 28 33 15 18 1019.0 1018.8 10.0
29/10:30pm 17.4 11.8 15.6 89 1.1 S 39 48 21 26 1018.6 1018.4 10.0
29/10:00pm 17.0 10.5 15.2 89 1.0 S 43 52 23 28 1018.4 1018.2 10.0
29/09:30pm 16.8 11.5 15.3 91 0.9 SSE 37 46 20 25 1019.1 1018.9 10.0
29/09:00pm 16.4 11.3 14.9 91 0.9 S 35 44 19 24 1019.1 1018.9 9.6
29/08:30pm 16.1 8.3 14.1 88 1.1 S 48 59 26 32 1018.9 1018.7 6.2
29/08:20pm 17.6 16.6 14.7 83 1.7 SSE 13 46 7 25 1019.3 1019.1 5.6
29/08:00pm 19.9 18.6 16.9 83 1.8 NNE 19 32 10 17 1018.4 1018.2 0.6
29/07:30pm 20.3 20.3 17.3 83 1.8 NNE 13 20 7 11 1018.6 1018.4 0.2
29/07:00pm 20.0 18.8 17.0 83 1.8 NNE 19 28 10 15 1018.2 1018.0 0.2
29/06:30pm 20.2 17.7 17.2 83 1.8 NE 26 32 14 17 1017.6 1017.4 0.2
29/06:00pm 20.2 18.2 17.4 84 1.7 ENE 24 30 13 16 1017.6 1017.4 0.2
29/05:30pm 19.9 16.3 16.2 79 2.2 ENE 30 33 16 18 1017.5 1017.3 0.0
29/05:00pm 20.7 18.1 15.9 74 2.9 E 24 28 13 15 1017.2 1017.0 0.0
29/04:30pm 21.0 19.2 16.0 73 3.0 E 20 26 11 14 1017.6 1017.4 0.0
29/04:00pm 21.2 19.4 15.5 70 3.4 E 19 24 10 13 1017.8 1017.6 0.0

Latest Capital City Observations: Canberra | Sydney | Melbourne | Brisbane | Adelaide | Perth | Hobart | Darwin

Other Formats:

Comma delimited format used in spreadsheet applications
http://www.bom.gov.au/fwo/IDQ60901/IDQ60901.94584.axf

JavaScript Object Notation format (JSON) in row-major order
http://www.bom.gov.au/fwo/IDQ60901/IDQ60901.94584.json